createdAt,value
2022-12-16T00:00:41.951Z,-7.50
2022-12-16T00:03:08.697Z,-7.50
2022-12-16T00:05:42.708Z,-7.50
2022-12-16T00:08:11.007Z,-7.50
2022-12-16T00:10:52.938Z,-7.50
2022-12-16T00:13:20.036Z,-7.50
2022-12-16T00:15:46.929Z,-7.60
2022-12-16T00:18:14.062Z,-7.60
2022-12-16T00:20:47.992Z,-7.70
2022-12-16T00:23:15.164Z,-7.70
2022-12-16T00:25:43.039Z,-7.70
2022-12-16T00:28:10.118Z,-7.70
2022-12-16T00:30:36.858Z,-7.70
2022-12-16T00:33:03.748Z,-7.70
2022-12-16T00:35:30.512Z,-7.70
2022-12-16T00:37:57.515Z,-7.70
2022-12-16T00:40:24.194Z,-7.80
2022-12-16T00:42:50.981Z,-7.70
2022-12-16T00:45:18.935Z,-7.80
2022-12-16T00:47:45.607Z,-7.80
2022-12-16T00:50:12.632Z,-7.70
2022-12-16T00:52:39.303Z,-7.80
2022-12-16T00:55:06.152Z,-7.80
2022-12-16T00:57:32.862Z,-7.80
2022-12-16T00:59:59.732Z,-7.80
2022-12-16T01:02:26.533Z,-7.80
2022-12-16T01:04:53.783Z,-7.80
2022-12-16T01:07:21.471Z,-7.80
2022-12-16T01:09:48.131Z,-7.80
2022-12-16T01:12:14.901Z,-7.80
2022-12-16T01:14:41.639Z,-7.80
2022-12-16T01:17:08.291Z,-7.80
2022-12-16T01:19:35.046Z,-7.80
2022-12-16T01:22:01.683Z,-7.90
2022-12-16T01:24:28.357Z,-7.90
2022-12-16T01:26:55.732Z,-7.90
2022-12-16T01:29:22.395Z,-7.90
2022-12-16T01:31:49.160Z,-7.90
2022-12-16T01:34:16.982Z,-7.90
2022-12-16T01:36:44.797Z,-7.80
2022-12-16T01:39:11.459Z,-7.80
2022-12-16T01:41:38.905Z,-7.80
2022-12-16T01:44:15.605Z,-7.70
2022-12-16T01:46:42.939Z,-7.70
2022-12-16T01:49:13.754Z,-7.70
2022-12-16T01:51:47.359Z,-7.70
2022-12-16T01:54:19.608Z,-7.80
2022-12-16T01:56:49.733Z,-7.80
2022-12-16T01:59:17.328Z,-7.80
2022-12-16T02:01:44.195Z,-7.80
2022-12-16T02:04:10.898Z,-7.80
2022-12-16T02:09:18.634Z,-7.80
2022-12-16T02:11:45.292Z,-7.80
2022-12-16T02:14:20.718Z,-7.80
2022-12-16T02:16:55.215Z,-7.70
2022-12-16T02:19:36.811Z,-7.70
2022-12-16T02:22:12.983Z,-7.70
2022-12-16T02:24:49.955Z,-7.70
2022-12-16T02:27:27.696Z,-7.60
2022-12-16T02:30:04.572Z,-7.70
2022-12-16T02:32:38.265Z,-7.60
2022-12-16T02:35:07.581Z,-7.60
2022-12-16T02:37:41.048Z,-7.50
2022-12-16T02:40:17.655Z,-7.50
2022-12-16T02:42:47.237Z,-7.50
2022-12-16T02:45:17.839Z,-7.50
2022-12-16T02:47:45.227Z,-7.50
2022-12-16T02:50:33.487Z,-7.40
2022-12-16T02:53:00.871Z,-7.40
2022-12-16T02:55:41.714Z,-7.30
2022-12-16T02:58:08.370Z,-7.30
2022-12-16T03:00:50.197Z,-7.30
2022-12-16T03:03:31.449Z,-7.20
2022-12-16T03:06:00.127Z,-7.20
2022-12-16T03:08:29.992Z,-7.10
2022-12-16T03:10:59.806Z,-7.10
2022-12-16T03:13:28.813Z,-7.00
2022-12-16T03:15:58.169Z,-7.00
2022-12-16T03:18:25.134Z,-7.00
2022-12-16T03:21:03.872Z,-6.90
2022-12-16T03:23:51.962Z,-6.90
2022-12-16T03:26:25.909Z,-6.90
2022-12-16T03:28:56.173Z,-6.90
2022-12-16T03:31:32.636Z,-6.90
2022-12-16T03:34:04.040Z,-6.90
2022-12-16T03:36:32.979Z,-6.90
2022-12-16T03:38:59.688Z,-6.90
2022-12-16T03:41:26.601Z,-6.80
2022-12-16T03:43:53.560Z,-6.70
2022-12-16T03:46:20.532Z,-6.60
2022-12-16T03:48:50.494Z,-6.60
2022-12-16T03:51:17.790Z,-6.50
2022-12-16T03:53:44.965Z,-6.50
2022-12-16T03:56:12.229Z,-6.40
2022-12-16T03:58:42.422Z,-6.30
2022-12-16T04:01:09.636Z,-6.20
2022-12-16T04:03:37.577Z,-6.10
2022-12-16T04:06:04.469Z,-6.10
2022-12-16T04:08:31.189Z,-6.00
2022-12-16T04:11:16.295Z,-5.90
2022-12-16T04:14:01.816Z,-5.90
2022-12-16T04:16:47.943Z,-5.80
2022-12-16T04:19:52.910Z,-5.80
2022-12-16T04:22:44.985Z,-5.70
2022-12-16T04:25:16.608Z,-5.60
2022-12-16T04:27:49.614Z,-5.60
2022-12-16T04:30:20.374Z,-5.50
2022-12-16T04:33:08.544Z,-5.50
2022-12-16T04:35:53.924Z,-5.50
2022-12-16T04:38:39.113Z,-5.60
2022-12-16T04:41:24.715Z,-5.60
2022-12-16T04:44:10.202Z,-5.60
2022-12-16T04:46:55.706Z,-5.70
2022-12-16T04:49:41.227Z,-5.70
2022-12-16T04:52:26.544Z,-5.80
2022-12-16T04:55:11.754Z,-5.90
2022-12-16T04:57:57.348Z,-6.00
2022-12-16T05:00:43.391Z,-6.10
2022-12-16T05:03:48.360Z,-6.10
2022-12-16T05:06:33.638Z,-6.20
2022-12-16T05:09:19.114Z,-6.20
2022-12-16T05:12:04.633Z,-6.30
2022-12-16T05:14:50.057Z,-6.40
2022-12-16T05:17:35.241Z,-6.40
2022-12-16T05:20:20.655Z,-6.50
2022-12-16T05:23:05.909Z,-6.50
2022-12-16T05:25:51.296Z,-6.60
2022-12-16T05:28:36.481Z,-6.60
2022-12-16T05:31:21.992Z,-6.60
2022-12-16T05:34:07.399Z,-6.60
2022-12-16T05:36:52.826Z,-6.70
2022-12-16T05:39:38.045Z,-6.70
2022-12-16T05:42:23.248Z,-6.70
2022-12-16T05:45:08.575Z,-6.70
2022-12-16T05:47:53.731Z,-6.70
2022-12-16T05:50:38.921Z,-6.70
2022-12-16T05:53:27.624Z,-6.70
2022-12-16T05:56:13.200Z,-6.70
2022-12-16T05:58:58.658Z,-6.70
2022-12-16T06:01:43.955Z,-6.70
2022-12-16T06:04:29.719Z,-6.80
2022-12-16T06:07:15.242Z,-6.80
2022-12-16T06:10:00.576Z,-6.80
2022-12-16T06:12:45.867Z,-6.80
2022-12-16T06:15:30.957Z,-6.80
2022-12-16T06:18:16.336Z,-6.90
2022-12-16T06:21:01.872Z,-6.90
2022-12-16T06:23:47.415Z,-7.00
2022-12-16T06:26:32.917Z,-7.00
2022-12-16T06:29:18.112Z,-7.00
2022-12-16T06:32:03.308Z,-7.00
2022-12-16T06:34:48.702Z,-7.00
2022-12-16T06:37:34.020Z,-7.00
2022-12-16T06:40:19.390Z,-7.00
2022-12-16T06:43:04.489Z,-6.90
2022-12-16T06:45:49.891Z,-6.90
2022-12-16T06:48:35.452Z,-6.80
2022-12-16T06:51:20.635Z,-6.80
2022-12-16T06:54:05.883Z,-6.70
2022-12-16T06:56:51.340Z,-6.70
2022-12-16T06:59:36.524Z,-6.60
2022-12-16T07:02:21.665Z,-6.60
2022-12-16T07:05:07.315Z,-6.50
2022-12-16T07:07:52.782Z,-6.40
2022-12-16T07:10:38.237Z,-6.30
2022-12-16T07:13:23.913Z,-6.20
2022-12-16T07:16:09.027Z,-6.10
2022-12-16T07:18:54.554Z,-6.10
2022-12-16T07:21:40.573Z,-6.10
2022-12-16T07:24:25.814Z,-6.00
2022-12-16T07:27:11.385Z,-5.90
2022-12-16T07:29:56.526Z,-5.90
2022-12-16T07:32:42.105Z,-5.80
2022-12-16T07:35:27.627Z,-5.70
2022-12-16T07:38:12.900Z,-5.70
2022-12-16T07:40:58.077Z,-5.70
2022-12-16T07:43:43.261Z,-5.70
2022-12-16T07:46:28.745Z,-5.70
2022-12-16T07:49:14.092Z,-5.60
2022-12-16T07:51:59.570Z,-5.60
2022-12-16T07:54:44.918Z,-5.60
2022-12-16T07:57:30.214Z,-5.60
2022-12-16T08:00:15.982Z,-5.50
2022-12-16T08:03:02.556Z,-5.40
2022-12-16T08:05:48.231Z,-5.30
2022-12-16T08:08:33.940Z,-5.20
2022-12-16T08:11:19.142Z,-5.10
2022-12-16T08:14:04.325Z,-5.10
2022-12-16T08:16:49.587Z,-5.00
2022-12-16T08:19:35.133Z,-5.00
2022-12-16T08:22:20.651Z,-4.90
2022-12-16T08:25:06.148Z,-4.90
2022-12-16T08:27:51.690Z,-4.80
2022-12-16T08:30:36.959Z,-4.70
2022-12-16T08:33:22.432Z,-4.30
2022-12-16T08:36:07.728Z,-3.40
2022-12-16T08:38:53.892Z,-1.70
2022-12-16T08:41:41.280Z,0.60
2022-12-16T08:44:26.424Z,2.70
2022-12-16T08:47:11.756Z,4.60
2022-12-16T08:49:59.911Z,6.20
2022-12-16T08:52:47.859Z,7.60
2022-12-16T08:55:33.202Z,8.80
2022-12-16T08:58:18.671Z,9.80
2022-12-16T09:01:07.579Z,10.60
2022-12-16T09:03:54.410Z,11.30
2022-12-16T09:06:40.887Z,11.80
2022-12-16T09:09:27.213Z,12.40
2022-12-16T09:12:13.000Z,13.00
2022-12-16T09:14:58.672Z,13.70
2022-12-16T09:17:43.967Z,14.30
2022-12-16T09:20:29.807Z,14.90
2022-12-16T09:23:15.212Z,15.40
2022-12-16T09:26:00.831Z,15.70
2022-12-16T09:28:46.304Z,16.00
2022-12-16T09:31:31.759Z,16.30
2022-12-16T09:34:17.336Z,16.70
2022-12-16T09:37:02.427Z,17.10
2022-12-16T09:39:47.870Z,17.50
2022-12-16T09:42:33.243Z,17.90
2022-12-16T09:45:25.307Z,18.30
2022-12-16T09:48:23.195Z,18.50
2022-12-16T09:51:10.398Z,18.90
2022-12-16T09:53:56.601Z,19.40
2022-12-16T09:56:46.470Z,19.70
2022-12-16T09:59:33.942Z,19.90
2022-12-16T10:02:19.652Z,20.10
2022-12-16T10:05:09.846Z,20.20
2022-12-16T10:08:02.651Z,20.40
2022-12-16T10:10:52.442Z,20.40
2022-12-16T10:13:44.255Z,20.20
2022-12-16T10:16:37.421Z,19.90
2022-12-16T10:19:25.660Z,19.30
2022-12-16T10:22:20.409Z,17.60
2022-12-16T10:25:23.200Z,15.40
2022-12-16T10:28:22.987Z,13.10
2022-12-16T10:31:08.676Z,10.80
2022-12-16T10:33:54.251Z,9.00
2022-12-16T10:36:43.385Z,7.60
2022-12-16T10:39:37.749Z,6.30
2022-12-16T10:42:23.087Z,5.30
2022-12-16T10:45:08.358Z,4.50
2022-12-16T10:47:54.293Z,3.80
2022-12-16T10:50:40.506Z,3.30
2022-12-16T10:53:32.707Z,2.80
2022-12-16T10:56:25.147Z,2.40
2022-12-16T10:59:12.554Z,2.00
2022-12-16T11:02:17.959Z,1.70
2022-12-16T11:05:21.354Z,1.50
2022-12-16T11:08:11.376Z,1.30
2022-12-16T11:10:59.330Z,1.00
2022-12-16T11:13:46.434Z,0.80
2022-12-16T11:16:33.851Z,0.70
2022-12-16T11:19:19.366Z,0.50
2022-12-16T11:22:04.772Z,0.40
2022-12-16T11:24:50.392Z,0.20
2022-12-16T11:28:01.325Z,0.20
2022-12-16T11:30:46.779Z,0.10
2022-12-16T11:33:36.810Z,0.00
2022-12-16T11:36:28.644Z,-0.20
2022-12-16T11:39:13.876Z,-0.30
2022-12-16T11:42:00.925Z,-0.40
2022-12-16T11:44:53.533Z,-0.50
2022-12-16T11:47:54.105Z,-0.50
2022-12-16T11:50:41.057Z,-0.60
2022-12-16T11:53:46.604Z,-0.70
2022-12-16T11:56:35.804Z,-0.80
2022-12-16T11:59:22.891Z,-0.80
2022-12-16T12:02:11.717Z,-0.90
2022-12-16T12:04:57.344Z,-1.00
2022-12-16T12:07:45.279Z,-1.10
2022-12-16T12:10:38.476Z,-1.10
2022-12-16T12:13:27.050Z,-1.10
2022-12-16T12:16:32.866Z,-1.10
2022-12-16T12:19:26.244Z,-1.20
2022-12-16T12:22:14.929Z,-1.20
2022-12-16T12:25:08.296Z,-1.20
2022-12-16T12:28:02.925Z,-1.30
2022-12-16T12:30:53.128Z,-1.30
2022-12-16T12:33:56.119Z,-1.20
2022-12-16T12:36:44.395Z,-1.20
2022-12-16T12:39:51.478Z,-1.30
2022-12-16T12:42:36.994Z,-1.30
2022-12-16T12:45:54.329Z,-1.30
2022-12-16T12:48:45.707Z,-1.30
2022-12-16T12:51:44.762Z,-1.30
2022-12-16T12:55:08.810Z,-1.30
2022-12-16T12:57:56.203Z,-1.40
2022-12-16T13:00:43.525Z,-1.40
2022-12-16T13:03:47.185Z,-1.40
2022-12-16T13:06:36.614Z,-1.50
2022-12-16T13:09:22.599Z,-1.50
2022-12-16T13:12:34.192Z,-1.50
2022-12-16T13:15:55.168Z,-1.60
2022-12-16T13:18:40.536Z,-1.60
2022-12-16T13:21:44.805Z,-1.70
2022-12-16T13:24:47.008Z,-1.70
2022-12-16T13:27:33.040Z,-1.70
2022-12-16T13:30:35.915Z,-1.70
2022-12-16T13:33:24.563Z,-1.80
2022-12-16T13:36:13.542Z,-1.80
2022-12-16T13:39:05.416Z,-1.80
2022-12-16T13:41:50.489Z,-1.90
2022-12-16T13:44:54.705Z,-1.90
2022-12-16T13:47:53.645Z,-2.00
2022-12-16T13:50:54.051Z,-2.00
2022-12-16T13:53:41.132Z,-2.00
2022-12-16T13:56:26.742Z,-2.10
2022-12-16T13:59:17.220Z,-2.10
2022-12-16T14:02:06.056Z,-2.20
2022-12-16T14:04:56.731Z,-2.30
2022-12-16T14:07:43.546Z,-2.30
2022-12-16T14:10:47.719Z,-2.40
2022-12-16T14:13:51.326Z,-2.40
2022-12-16T14:16:39.935Z,-2.40
2022-12-16T14:19:45.956Z,-2.40
2022-12-16T14:22:59.739Z,-2.40
2022-12-16T14:25:45.377Z,-2.40
2022-12-16T14:28:40.770Z,-2.50
2022-12-16T14:31:37.265Z,-2.50
2022-12-16T14:34:22.862Z,-2.50
2022-12-16T14:37:08.454Z,-2.60
2022-12-16T14:39:57.965Z,-2.70
2022-12-16T14:42:47.261Z,-2.80
2022-12-16T14:45:39.605Z,-2.90
2022-12-16T14:48:46.036Z,-3.00
2022-12-16T14:51:48.355Z,-3.00
2022-12-16T14:54:41.670Z,-3.00
2022-12-16T14:57:31.518Z,-3.10
2022-12-16T15:00:29.468Z,-3.20
2022-12-16T15:03:20.925Z,-3.30
2022-12-16T15:06:08.045Z,-3.30
2022-12-16T15:08:58.170Z,-3.30
2022-12-16T15:11:44.115Z,-3.40
2022-12-16T15:14:36.475Z,-3.40
2022-12-16T15:17:22.215Z,-3.50
2022-12-16T15:20:09.308Z,-3.50
2022-12-16T15:22:54.759Z,-3.50
2022-12-16T15:25:41.833Z,-3.60
2022-12-16T15:28:41.591Z,-3.60
2022-12-16T15:31:44.285Z,-3.70
2022-12-16T15:34:36.137Z,-3.70
2022-12-16T15:37:21.822Z,-3.80
2022-12-16T15:40:10.529Z,-3.90
2022-12-16T15:43:09.683Z,-4.00
2022-12-16T15:45:55.420Z,-4.10
2022-12-16T15:48:46.116Z,-4.20
2022-12-16T15:51:47.084Z,-4.30
2022-12-16T15:54:33.613Z,-4.30
2022-12-16T15:57:19.233Z,-4.40
2022-12-16T16:00:15.727Z,-4.40
2022-12-16T16:03:05.432Z,-4.50
2022-12-16T16:05:51.508Z,-4.50
2022-12-16T16:08:37.122Z,-4.60
2022-12-16T16:11:22.607Z,-4.60
2022-12-16T16:14:14.000Z,-4.60
2022-12-16T16:16:59.904Z,-4.70
2022-12-16T16:19:45.301Z,-4.70
2022-12-16T16:22:31.882Z,-4.70
2022-12-16T16:25:17.448Z,-4.80
2022-12-16T16:28:02.686Z,-4.80
2022-12-16T16:30:48.001Z,-4.80
2022-12-16T16:33:33.764Z,-4.80
2022-12-16T16:36:19.129Z,-4.80
2022-12-16T16:39:04.493Z,-4.80
2022-12-16T16:41:49.750Z,-4.80
2022-12-16T16:44:35.253Z,-4.70
2022-12-16T16:47:20.508Z,-4.70
2022-12-16T16:50:06.006Z,-4.70
2022-12-16T16:52:51.687Z,-4.80
2022-12-16T16:55:39.501Z,-4.80
2022-12-16T16:58:29.746Z,-4.80
2022-12-16T17:01:14.971Z,-4.80
2022-12-16T17:04:01.333Z,-4.80
2022-12-16T17:06:46.755Z,-4.90
2022-12-16T17:09:32.202Z,-4.90
2022-12-16T17:12:17.816Z,-4.90
2022-12-16T17:15:03.379Z,-4.90
2022-12-16T17:17:48.709Z,-4.90
2022-12-16T17:20:34.952Z,-5.00
2022-12-16T17:23:20.449Z,-5.00
2022-12-16T17:26:05.941Z,-5.10
2022-12-16T17:28:51.347Z,-5.10
2022-12-16T17:31:36.958Z,-5.20
2022-12-16T17:34:22.567Z,-5.20
2022-12-16T17:37:08.244Z,-5.20
2022-12-16T17:39:54.057Z,-5.20
2022-12-16T17:42:44.732Z,-5.20
2022-12-16T17:45:31.784Z,-5.20
2022-12-16T17:48:16.977Z,-5.20
2022-12-16T17:51:02.497Z,-5.20
2022-12-16T17:53:49.517Z,-5.20
2022-12-16T17:56:35.091Z,-5.20
2022-12-16T17:59:20.416Z,-5.30
2022-12-16T18:02:05.704Z,-5.30
2022-12-16T18:04:51.324Z,-5.30
2022-12-16T18:07:36.581Z,-5.30
2022-12-16T18:10:22.090Z,-5.30
2022-12-16T18:13:07.543Z,-5.30
2022-12-16T18:15:53.106Z,-5.30
2022-12-16T18:18:44.465Z,-5.30
2022-12-16T18:21:32.207Z,-5.30
2022-12-16T18:24:17.480Z,-5.20
2022-12-16T18:27:02.896Z,-5.20
2022-12-16T18:29:48.078Z,-5.10
2022-12-16T18:32:35.381Z,-5.00
2022-12-16T18:35:20.940Z,-5.00
2022-12-16T18:38:06.453Z,-4.90
2022-12-16T18:40:52.039Z,-4.80
2022-12-16T18:43:37.356Z,-4.80
2022-12-16T18:46:23.311Z,-4.70
2022-12-16T18:49:09.000Z,-4.70
2022-12-16T18:51:54.414Z,-4.70
2022-12-16T18:54:39.940Z,-4.60
2022-12-16T18:57:25.365Z,-4.60
2022-12-16T19:00:10.636Z,-4.50
2022-12-16T19:02:56.504Z,-4.40
2022-12-16T19:05:42.313Z,-4.40
2022-12-16T19:08:28.294Z,-4.30
2022-12-16T19:11:14.814Z,-4.20
2022-12-16T19:14:00.416Z,-4.20
2022-12-16T19:16:46.096Z,-4.10
2022-12-16T19:19:32.476Z,-4.00
2022-12-16T19:22:17.995Z,-4.00
2022-12-16T19:25:03.537Z,-4.00
2022-12-16T19:27:48.849Z,-3.90
2022-12-16T19:30:37.709Z,-3.90
2022-12-16T19:33:23.393Z,-3.90
2022-12-16T19:36:08.861Z,-3.90
2022-12-16T19:38:56.527Z,-4.00
2022-12-16T19:41:58.685Z,-4.00
2022-12-16T19:44:44.290Z,-3.90
2022-12-16T19:47:29.665Z,-4.00
2022-12-16T19:50:15.078Z,-3.90
2022-12-16T19:53:00.797Z,-3.90
2022-12-16T19:55:46.295Z,-3.90
2022-12-16T19:58:38.110Z,-3.90
2022-12-16T20:01:28.019Z,-3.90
2022-12-16T20:04:27.240Z,-3.90
2022-12-16T20:07:12.312Z,-3.90
2022-12-16T20:09:57.485Z,-4.00
2022-12-16T20:12:42.951Z,-3.90
2022-12-16T20:15:28.188Z,-3.90
2022-12-16T20:18:13.438Z,-3.90
2022-12-16T20:20:58.696Z,-3.90
2022-12-16T20:23:44.163Z,-3.90
2022-12-16T20:26:29.721Z,-3.90
2022-12-16T20:29:15.164Z,-3.90
2022-12-16T20:32:00.361Z,-3.90
2022-12-16T20:34:45.494Z,-3.90
2022-12-16T20:37:30.787Z,-3.90
2022-12-16T20:40:16.312Z,-3.80
2022-12-16T20:43:01.996Z,-3.90
2022-12-16T20:45:47.546Z,-3.90
2022-12-16T20:48:33.487Z,-3.80
2022-12-16T20:51:25.876Z,-3.80
2022-12-16T20:54:12.099Z,-3.80
2022-12-16T20:56:57.550Z,-3.80
2022-12-16T20:59:43.191Z,-3.80
2022-12-16T21:02:33.594Z,-3.70
2022-12-16T21:05:20.177Z,-3.70
2022-12-16T21:08:05.904Z,-3.70
2022-12-16T21:10:51.711Z,-3.60
2022-12-16T21:13:37.539Z,-3.60
2022-12-16T21:16:23.883Z,-3.60
2022-12-16T21:19:09.482Z,-3.60
2022-12-16T21:21:54.977Z,-3.60
2022-12-16T21:24:42.189Z,-3.50
2022-12-16T21:27:27.875Z,-3.50
2022-12-16T21:30:13.455Z,-3.50
2022-12-16T21:32:59.056Z,-3.50
2022-12-16T21:35:44.520Z,-3.40
2022-12-16T21:38:30.119Z,-3.40
2022-12-16T21:41:15.528Z,-3.40
2022-12-16T21:44:00.827Z,-3.40
2022-12-16T21:46:46.124Z,-3.40
2022-12-16T21:49:31.551Z,-3.40
2022-12-16T21:52:17.239Z,-3.50
2022-12-16T21:55:02.789Z,-3.50
2022-12-16T21:57:48.320Z,-3.60
2022-12-16T22:00:34.178Z,-3.70
2022-12-16T22:03:19.476Z,-3.80
2022-12-16T22:06:05.091Z,-3.70
2022-12-16T22:08:51.727Z,-3.70
2022-12-16T22:11:37.303Z,-3.70
2022-12-16T22:14:22.852Z,-3.60
2022-12-16T22:17:09.576Z,-3.60
2022-12-16T22:19:56.147Z,-3.60
2022-12-16T22:22:41.920Z,-3.60
2022-12-16T22:25:47.358Z,-3.60
2022-12-16T22:28:32.555Z,-3.60
2022-12-16T22:31:18.153Z,-3.60
2022-12-16T22:34:07.021Z,-3.60
2022-12-16T22:36:52.541Z,-3.60
2022-12-16T22:39:44.931Z,-3.60
2022-12-16T22:42:31.475Z,-3.60
2022-12-16T22:45:16.579Z,-3.70
2022-12-16T22:48:01.716Z,-3.60
2022-12-16T22:50:47.115Z,-3.60
2022-12-16T22:53:32.708Z,-3.60
2022-12-16T22:56:18.125Z,-3.60
2022-12-16T22:59:03.560Z,-3.60
2022-12-16T23:01:49.176Z,-3.60
2022-12-16T23:04:34.646Z,-3.60
2022-12-16T23:07:20.066Z,-3.60
2022-12-16T23:10:05.438Z,-3.60
2022-12-16T23:12:50.738Z,-3.50
2022-12-16T23:15:37.546Z,-3.60
2022-12-16T23:18:23.079Z,-3.50
2022-12-16T23:21:09.787Z,-3.50
2022-12-16T23:23:56.845Z,-3.50
2022-12-16T23:26:42.648Z,-3.50
2022-12-16T23:29:28.267Z,-3.50
2022-12-16T23:32:14.018Z,-3.50
2022-12-16T23:34:59.227Z,-3.50
2022-12-16T23:37:44.820Z,-3.50
2022-12-16T23:40:30.664Z,-3.40
2022-12-16T23:43:16.122Z,-3.40
2022-12-16T23:46:02.366Z,-3.40
2022-12-16T23:48:47.891Z,-3.40
2022-12-16T23:51:33.149Z,-3.40
2022-12-16T23:54:18.614Z,-3.40
2022-12-16T23:57:03.863Z,-3.40
2022-12-16T23:59:49.177Z,-3.40
